Time;durP1;ratioP1;P1;durP2;ratioP2;P2;SDS_P1;SDS_P2;PMS_P1;PMS_P2;Temp;Humidity;BMP_temperature;BMP_pressure;BME280_temperature;BME280_humidity;BME280_pressure;Samples;Min_cycle;Max_cycle;Signal;HPM_P1;HPM_P2
2022/01/08 00:00:14;;;;;;;11.43;6.90;;;;;;;4.05;68.93;100364.13;682737;29;1090;-81
2022/01/08 00:00:35;;;;;;;11.65;6.88;;;;;;;4.07;68.92;100365.09;680361;29;828;-81
2022/01/08 00:01:09;;;;;;;9.75;6.72;;;;;;;4.09;68.46;100374.69;683047;29;749;-82
2022/01/08 00:01:29;;;;;;;11.07;7.28;;;;;;;4.08;68.39;100365.16;685520;28;864;-81
2022/01/08 00:01:50;;;;;;;11.18;7.22;;;;;;;4.05;68.73;100369.31;682744;28;1069;-81
2022/01/08 00:02:11;;;;;;;11.68;7.50;;;;;;;4.02;68.32;100372.63;681803;28;1074;-81
2022/01/08 00:02:31;;;;;;;11.90;7.80;;;;;;;3.99;68.41;100369.91;685449;28;1160;-81
2022/01/08 00:02:52;;;;;;;11.73;7.60;;;;;;;4.00;68.42;100374.25;683376;28;838;-82
2022/01/08 00:03:13;;;;;;;11.43;7.32;;;;;;;3.98;68.73;100381.00;683345;28;1147;-81
2022/01/08 00:03:33;;;;;;;10.38;7.30;;;;;;;3.91;68.71;100366.03;685602;28;1253;-82
2022/01/08 00:03:54;;;;;;;11.67;8.00;;;;;;;3.92;68.61;100367.81;687759;28;1370;-81
2022/01/08 00:04:15;;;;;;;11.93;8.05;;;;;;;3.93;68.63;100377.34;682526;28;1268;-81
2022/01/08 00:04:36;;;;;;;11.43;7.90;;;;;;;3.91;68.74;100372.09;682837;29;783;-81
2022/01/08 00:04:58;;;;;;;9.85;7.55;;;;;;;3.90;68.63;100369.41;677709;29;1197;-81
2022/01/08 00:05:19;;;;;;;9.77;7.50;;;;;;;3.88;69.04;100371.94;682806;29;1256;-81
2022/01/08 00:05:39;;;;;;;11.60;7.50;;;;;;;3.87;68.76;100370.19;682044;29;914;-81
2022/01/08 00:06:00;;;;;;;12.10;7.40;;;;;;;3.86;69.07;100362.34;680262;28;1245;-81
2022/01/08 00:06:21;;;;;;;12.88;7.50;;;;;;;3.88;68.98;100378.81;677018;29;1576;-81
2022/01/08 00:06:41;;;;;;;11.33;7.50;;;;;;;3.83;68.68;100368.25;679465;29;1382;-81
2022/01/08 00:07:02;;;;;;;12.65;7.90;;;;;;;3.83;68.72;100369.16;677485;29;1129;-81
2022/01/08 00:07:22;;;;;;;12.57;8.02;;;;;;;3.87;68.91;100371.88;677712;29;966;-81
2022/01/08 00:07:43;;;;;;;13.23;7.90;;;;;;;3.80;69.00;100361.25;682874;29;2039;-81
2022/01/08 00:08:05;;;;;;;12.10;7.57;;;;;;;3.80;68.89;100363.81;681024;29;1240;-81
2022/01/08 00:08:26;;;;;;;12.65;8.05;;;;;;;3.81;68.85;100370.75;682873;29;836;-81
2022/01/08 00:08:48;;;;;;;12.93;8.40;;;;;;;3.79;68.85;100374.97;682904;29;1067;-81
2022/01/08 00:09:11;;;;;;;11.68;8.02;;;;;;;3.83;69.10;100374.31;683489;28;1140;-81
2022/01/08 00:09:32;;;;;;;12.22;7.50;;;;;;;3.85;69.01;100376.06;678231;29;1229;-81
2022/01/08 00:09:53;;;;;;;11.30;7.60;;;;;;;3.78;68.93;100375.78;681190;29;811;-81
2022/01/08 00:10:15;;;;;;;12.40;7.60;;;;;;;3.81;69.02;100367.28;679917;29;1210;-81
2022/01/08 00:10:35;;;;;;;13.55;7.60;;;;;;;3.81;68.82;100381.06;682864;29;1229;-81
2022/01/08 00:10:56;;;;;;;14.27;7.72;;;;;;;3.74;68.70;100362.63;680227;28;1268;-81
2022/01/08 00:11:21;;;;;;;13.50;8.00;;;;;;;3.76;68.76;100374.81;682657;29;1381;-81
2022/01/08 00:11:42;;;;;;;10.23;8.07;;;;;;;3.79;69.18;100377.53;679862;29;1325;-81
2022/01/08 00:12:03;;;;;;;10.00;7.85;;;;;;;3.70;68.85;100371.94;680753;29;2001;-81
2022/01/08 00:12:24;;;;;;;10.27;7.82;;;;;;;3.69;69.19;100367.59;688038;28;1201;-81
2022/01/08 00:12:45;;;;;;;11.50;8.00;;;;;;;3.73;69.13;100372.06;682776;29;1651;-81
2022/01/08 00:13:06;;;;;;;11.50;8.20;;;;;;;3.77;69.24;100379.16;681947;29;1215;-82
2022/01/08 00:13:27;;;;;;;12.88;8.70;;;;;;;3.75;69.06;100375.63;682878;29;820;-81
2022/01/08 00:13:48;;;;;;;12.27;8.60;;;;;;;3.74;69.18;100373.84;680192;29;1300;-81
2022/01/08 00:14:11;;;;;;;11.38;8.20;;;;;;;3.75;68.74;100380.78;680064;29;1273;-82
2022/01/08 00:14:31;;;;;;;12.02;7.90;;;;;;;3.69;69.26;100368.44;680428;29;896;-81
2022/01/08 00:14:52;;;;;;;14.98;7.90;;;;;;;3.71;69.13;100376.28;680257;29;808;-81
2022/01/08 00:15:12;;;;;;;15.93;7.53;;;;;;;3.70;69.17;100370.22;676715;29;1208;-81
2022/01/08 00:15:34;;;;;;;14.23;7.35;;;;;;;3.76;68.81;100377.41;680367;29;887;-81
2022/01/08 00:15:55;;;;;;;13.50;7.25;;;;;;;3.71;68.95;100373.69;678338;29;1990;-81
2022/01/08 00:16:15;;;;;;;14.15;7.22;;;;;;;3.72;69.11;100372.00;682524;29;1263;-81
2022/01/08 00:16:37;;;;;;;11.53;7.10;;;;;;;3.67;68.58;100361.44;677697;29;923;-81
2022/01/08 00:16:58;;;;;;;10.50;7.00;;;;;;;3.74;69.20;100373.84;680187;29;1187;-81
2022/01/08 00:17:24;;;;;;;9.30;7.20;;;;;;;3.77;68.83;100380.84;680149;29;1042;-81
2022/01/08 00:17:48;;;;;;;9.32;6.90;;;;;;;3.82;68.74;100381.97;682964;29;879;-81
2022/01/08 00:18:08;;;;;;;9.90;6.97;;;;;;;3.74;68.99;100363.50;679974;29;1211;-81
2022/01/08 00:18:29;;;;;;;11.13;7.28;;;;;;;3.77;68.94;100371.44;682884;29;1174;-81
2022/01/08 00:18:50;;;;;;;10.30;7.20;;;;;;;3.79;69.18;100377.53;681691;29;1650;-81
2022/01/08 00:19:10;;;;;;;10.00;7.30;;;;;;;3.78;69.08;100369.72;680008;29;1269;-82
2022/01/08 00:19:31;;;;;;;9.02;7.40;;;;;;;3.75;68.85;100364.41;679757;29;848;-81
2022/01/08 00:19:51;;;;;;;10.10;7.53;;;;;;;3.80;68.81;100379.31;677417;29;797;-81
2022/01/08 00:20:12;;;;;;;10.87;7.80;;;;;;;3.76;68.66;100367.06;679244;29;1227;-81
2022/01/08 00:20:35;;;;;;;11.27;7.68;;;;;;;3.75;68.70;100364.41;683410;28;792;-81
2022/01/08 00:20:56;;;;;;;11.00;7.80;;;;;;;3.75;68.79;100365.31;681602;28;989;-81
2022/01/08 00:21:18;;;;;;;11.30;7.68;;;;;;;3.74;68.74;100363.50;680013;29;1242;-81
2022/01/08 00:21:38;;;;;;;13.60;7.70;;;;;;;3.72;68.48;100365.13;679972;29;1722;-82
2022/01/08 00:21:59;;;;;;;14.70;7.65;;;;;;;3.73;68.56;100364.31;677545;29;1231;-82
2022/01/08 00:22:20;;;;;;;14.52;7.80;;;;;;;3.77;68.76;100370.53;672121;29;1150;-81
2022/01/08 00:22:40;;;;;;;12.03;7.90;;;;;;;3.73;68.62;100368.63;675543;29;736;-81
2022/01/08 00:23:01;;;;;;;10.60;7.90;;;;;;;3.75;68.62;100367.00;685372;28;1175;-81
2022/01/08 00:23:21;;;;;;;10.85;7.70;;;;;;;3.68;68.85;100352.91;681782;29;1061;-82
2022/01/08 00:23:42;;;;;;;12.30;7.60;;;;;;;3.75;68.83;100374.72;680193;28;1064;-81
2022/01/08 00:24:03;;;;;;;12.38;7.25;;;;;;;3.67;68.49;100356.28;674963;29;1100;-81
2022/01/08 00:24:23;;;;;;;13.75;7.63;;;;;;;3.69;68.28;100359.84;679984;29;1209;-82
2022/01/08 00:24:44;;;;;;;15.37;9.97;;;;;;;3.74;68.83;100367.81;680234;29;868;-82
2022/01/08 00:25:08;;;;;;;17.37;10.70;;;;;;;3.74;68.94;100363.50;682662;29;1386;-81
2022/01/08 00:25:28;;;;;;;17.30;10.23;;;;;;;3.70;68.83;100359.03;680308;29;792;-81
2022/01/08 00:25:49;;;;;;;16.30;8.70;;;;;;;3.66;68.92;100354.50;682253;29;840;-81
2022/01/08 00:26:22;;;;;;;16.52;8.07;;;;;;;3.65;68.56;100357.91;683654;28;1246;-81
2022/01/08 00:26:43;;;;;;;14.98;8.15;;;;;;;3.65;68.83;100352.75;675417;29;1939;-82
2022/01/08 00:27:47;;;;;;;16.03;9.00;;;;;;;3.73;68.57;100369.50;685050;28;1262;-81
2022/01/08 00:28:08;;;;;;;20.08;11.68;;;;;;;3.75;68.77;100375.63;675671;29;1223;-81
2022/01/08 00:28:30;;;;;;;20.13;11.18;;;;;;;3.77;68.74;100365.38;680235;29;1112;-81
2022/01/08 00:28:51;;;;;;;18.08;11.23;;;;;;;3.81;68.61;100360.41;681890;28;833;-81
2022/01/08 00:29:11;;;;;;;19.47;11.07;;;;;;;3.83;68.34;100357.94;682451;28;1234;-81
2022/01/08 00:29:32;;;;;;;18.30;10.35;;;;;;;3.87;68.02;100369.28;679673;29;1221;-81
2022/01/08 00:29:53;;;;;;;16.73;9.60;;;;;;;3.85;68.37;100365.75;674920;29;1192;-82
2022/01/08 00:30:13;;;;;;;13.90;9.33;;;;;;;3.83;68.27;100358.81;679051;29;1525;-82
2022/01/08 00:30:34;;;;;;;13.90;9.20;;;;;;;3.88;68.22;100365.88;682822;28;1201;-81
2022/01/08 00:30:54;;;;;;;13.63;8.65;;;;;;;3.79;68.02;100361.16;682902;29;866;-82
2022/01/08 00:31:15;;;;;;;13.87;8.33;;;;;;;3.85;67.96;100371.78;682666;29;1069;-82
2022/01/08 00:31:36;;;;;;;12.45;7.97;;;;;;;3.82;68.31;100362.19;680217;29;859;-81
2022/01/08 00:31:56;;;;;;;11.93;8.10;;;;;;;3.92;68.20;100376.44;682689;29;1381;-82
2022/01/08 00:32:20;;;;;;;11.45;7.90;;;;;;;3.90;68.19;100375.50;679722;28;1379;-81
2022/01/08 00:32:41;;;;;;;14.00;8.05;;;;;;;3.89;67.97;100365.97;682887;28;935;-81
2022/01/08 00:33:02;;;;;;;14.57;7.95;;;;;;;3.87;68.39;100366.72;678581;29;906;-81
2022/01/08 00:33:22;;;;;;;13.95;8.10;;;;;;;3.90;68.15;100378.06;682775;29;965;-82
2022/01/08 00:33:43;;;;;;;12.23;8.15;;;;;;;3.92;68.15;100375.56;679423;29;1269;-81
2022/01/08 00:34:04;;;;;;;13.18;8.38;;;;;;;3.88;68.08;100371.06;678288;29;1186;-82
2022/01/08 00:34:24;;;;;;;13.50;8.20;;;;;;;3.85;68.13;100363.19;680167;28;1106;-81
2022/01/08 00:34:45;;;;;;;13.52;8.10;;;;;;;3.85;68.50;100370.91;682756;29;1124;-82
2022/01/08 00:35:09;;;;;;;11.65;7.88;;;;;;;3.80;68.39;100363.81;680949;29;1116;-81
2022/01/08 00:35:32;;;;;;;11.88;7.80;;;;;;;4.00;67.89;100366.50;681272;29;1197;-82
2022/01/08 00:35:53;;;;;;;13.52;8.10;;;;;;;4.08;67.91;100372.91;677713;29;789;-82
2022/01/08 00:36:14;;;;;;;15.40;8.95;;;;;;;4.02;67.75;100366.56;676917;29;1288;-82
2022/01/08 00:36:34;;;;;;;15.18;9.23;;;;;;;3.97;68.03;100366.34;682425;29;1162;-81
2022/01/08 00:36:55;;;;;;;12.77;8.30;;;;;;;4.00;68.01;100376.81;684029;28;1469;-81
2022/01/08 00:37:16;;;;;;;10.80;7.50;;;;;;;4.01;67.91;100370.84;685258;28;1072;-81
2022/01/08 00:37:37;;;;;;;11.00;7.13;;;;;;;3.97;68.02;100364.66;682862;29;1280;-81
2022/01/08 00:37:58;;;;;;;10.70;7.03;;;;;;;3.95;67.78;100363.69;682688;29;1156;-82
2022/01/08 00:38:18;;;;;;;10.80;6.73;;;;;;;3.93;67.91;100356.69;680087;29;1072;-81
2022/01/08 00:38:39;;;;;;;8.40;6.68;;;;;;;3.95;67.67;100362.81;680000;29;1155;-81
2022/01/08 00:39:00;;;;;;;12.98;7.20;;;;;;;3.96;67.61;100364.56;685402;28;1176;-82
2022/01/08 00:39:21;;;;;;;14.90;7.70;;;;;;;3.98;67.70;100368.09;682159;29;1528;-81
2022/01/08 00:39:41;;;;;;;16.25;7.57;;;;;;;3.96;67.89;100370.63;684750;28;849;-80
2022/01/08 00:40:02;;;;;;;11.70;7.10;;;;;;;3.94;67.94;100361.03;683316;28;1159;-82
2022/01/08 00:40:23;;;;;;;11.10;7.10;;;;;;;3.97;67.97;100368.91;682690;29;1140;-81
2022/01/08 00:40:44;;;;;;;10.20;7.10;;;;;;;3.90;67.72;100367.75;677591;29;1221;-81
2022/01/08 00:41:04;;;;;;;12.38;7.30;;;;;;;3.91;67.92;100368.59;681828;28;1186;-81
2022/01/08 00:41:25;;;;;;;11.73;7.43;;;;;;;3.94;67.66;100374.81;685275;28;1158;-82
2022/01/08 00:41:46;;;;;;;11.52;7.15;;;;;;;3.91;67.86;100368.59;680265;29;839;-81
2022/01/08 00:42:07;;;;;;;11.55;7.07;;;;;;;3.90;67.79;100364.25;682568;29;1079;-82
2022/01/08 00:42:27;;;;;;;11.40;6.70;;;;;;;3.90;68.09;100372.00;682756;29;812;-82
2022/01/08 00:42:48;;;;;;;13.50;7.27;;;;;;;3.90;68.05;100364.25;677524;29;815;-81
2022/01/08 00:43:09;;;;;;;12.45;7.30;;;;;;;3.95;67.77;100373.13;681438;29;1064;-81
2022/01/08 00:43:30;;;;;;;12.82;7.43;;;;;;;3.91;67.75;100373.78;682840;28;1119;-82
2022/01/08 00:43:50;;;;;;;10.52;7.00;;;;;;;3.91;67.88;100376.34;682920;29;740;-82
2022/01/08 00:44:11;;;;;;;11.32;6.88;;;;;;;3.83;67.63;100364.00;683985;28;1140;-81
2022/01/08 00:44:32;;;;;;;10.20;6.50;;;;;;;3.82;67.63;100356.16;682934;29;749;-82
2022/01/08 00:44:52;;;;;;;11.57;6.50;;;;;;;3.85;68.13;100363.19;685194;28;784;-82
2022/01/08 00:45:13;;;;;;;11.30;7.20;;;;;;;3.88;68.05;100365.88;680920;29;1357;-81
2022/01/08 00:45:33;;;;;;;12.63;7.53;;;;;;;3.85;67.70;100360.59;680368;29;796;-81
2022/01/08 00:45:54;;;;;;;13.38;7.70;;;;;;;3.88;68.04;100365.88;680455;29;1289;-82
2022/01/08 00:46:14;;;;;;;14.27;7.57;;;;;;;3.86;68.02;100368.38;684717;28;1133;-82
2022/01/08 00:46:35;;;;;;;13.20;7.30;;;;;;;3.93;67.83;100374.75;681267;29;1704;-82
2022/01/08 00:46:56;;;;;;;10.88;7.00;;;;;;;3.90;67.54;100369.41;682906;28;1123;-81
2022/01/08 00:47:16;;;;;;;10.00;7.10;;;;;;;3.88;67.81;100365.88;685213;28;1289;-81
2022/01/08 00:47:37;;;;;;;11.30;7.20;;;;;;;3.90;68.25;100372.00;685479;28;1987;-81
2022/01/08 00:47:57;;;;;;;11.77;7.50;;;;;;;3.84;68.13;100364.84;680133;29;1222;-82
2022/01/08 00:48:19;;;;;;;11.02;7.20;;;;;;;3.86;67.87;100368.38;682649;28;1093;-81
2022/01/08 00:48:39;;;;;;;11.50;7.97;;;;;;;3.88;67.65;100376.22;679660;29;1161;-81
2022/01/08 00:49:13;;;;;;;12.13;8.23;;;;;;;3.87;67.94;100371.88;680414;29;1136;-81
2022/01/08 00:49:33;;;;;;;12.70;8.00;;;;;;;3.90;67.83;100374.59;682323;29;875;-82
2022/01/08 00:49:54;;;;;;;12.48;7.70;;;;;;;3.87;67.89;100364.13;679987;29;796;-82
2022/01/08 00:50:15;;;;;;;12.77;8.05;;;;;;;3.92;67.67;100378.16;679286;29;1148;-82
2022/01/08 00:50:35;;;;;;;11.27;7.90;;;;;;;3.87;68.19;100371.88;682828;29;1236;-81
2022/01/08 00:50:56;;;;;;;10.77;8.27;;;;;;;3.91;68.04;100379.84;685503;28;1143;-82
2022/01/08 00:51:20;;;;;;;10.48;8.02;;;;;;;3.87;68.00;100371.88;681965;29;1118;-82
2022/01/08 00:51:41;;;;;;;11.57;8.43;;;;;;;3.87;67.55;100375.34;681155;29;1228;-81
2022/01/08 00:52:02;;;;;;;13.75;8.32;;;;;;;3.84;67.66;100370.03;675262;29;1139;-81
2022/01/08 00:52:23;;;;;;;15.38;8.20;;;;;;;3.86;68.08;100372.69;680165;29;1028;-81
2022/01/08 00:52:44;;;;;;;14.77;8.20;;;;;;;3.82;67.62;100377.69;682938;29;714;-81
2022/01/08 00:53:04;;;;;;;14.10;8.32;;;;;;;3.86;67.78;100375.25;683412;28;1409;-82
2022/01/08 00:53:25;;;;;;;12.73;8.30;;;;;;;3.82;68.06;100374.22;685092;28;1711;-82
2022/01/08 00:53:46;;;;;;;11.93;7.85;;;;;;;3.86;67.65;100383.88;687998;28;1028;-81
2022/01/08 00:54:06;;;;;;;12.00;7.80;;;;;;;3.79;67.47;100371.47;683728;28;1212;-81
2022/01/08 00:54:27;;;;;;;14.63;8.00;;;;;;;3.81;67.73;100375.91;682317;29;1399;-81
2022/01/08 00:54:48;;;;;;;15.40;8.05;;;;;;;3.76;67.53;100372.25;677637;29;1106;-81
2022/01/08 00:55:09;;;;;;;14.68;7.88;;;;;;;3.78;68.04;100375.78;679798;28;1228;-82
2022/01/08 00:55:30;;;;;;;12.88;7.90;;;;;;;3.79;68.04;100371.47;685510;28;1458;-82
2022/01/08 00:55:51;;;;;;;14.43;7.95;;;;;;;3.81;67.62;100380.22;685390;28;849;-82
2022/01/08 00:56:14;;;;;;;15.13;7.38;;;;;;;3.78;68.18;100370.59;679223;29;1152;-81
2022/01/08 00:56:34;;;;;;;12.10;7.00;;;;;;;3.77;68.11;100379.16;685432;28;807;-82
2022/01/08 00:56:57;;;;;;;11.63;6.90;;;;;;;3.75;67.75;100370.47;680233;29;764;-81
2022/01/08 00:57:17;;;;;;;10.85;7.22;;;;;;;3.74;67.83;100373.84;685302;28;1027;-82
2022/01/08 00:57:38;;;;;;;11.88;7.45;;;;;;;3.75;67.80;100379.91;679879;29;776;-81
2022/01/08 00:57:59;;;;;;;10.90;7.18;;;;;;;3.73;67.90;100374.66;684930;28;1477;-82
2022/01/08 00:58:20;;;;;;;10.32;6.72;;;;;;;3.77;68.08;100375.69;680057;29;1137;-81
2022/01/08 00:58:52;;;;;;;12.30;7.10;;;;;;;3.75;68.00;100380.78;682670;29;1300;-82
2022/01/08 00:59:14;;;;;;;16.55;7.70;;;;;;;3.77;67.81;100378.28;682936;28;1445;-82
2022/01/08 00:59:34;;;;;;;16.65;7.90;;;;;;;3.81;67.85;100386.22;682270;29;848;-81
2022/01/08 00:59:55;;;;;;;14.45;7.30;;;;;;;3.73;68.01;100371.19;674663;29;1239;-82
2022/01/08 01:00:22;;;;;;;11.38;7.30;;;;;;;3.75;67.54;100375.63;679824;29;1087;-82
2022/01/08 01:00:48;;;;;;;10.90;7.90;;;;;;;3.88;67.53;100378.81;685443;28;1161;-81
2022/01/08 01:01:12;;;;;;;11.35;8.05;;;;;;;3.97;67.66;100372.41;682425;29;1222;-82
2022/01/08 01:01:33;;;;;;;9.90;7.45;;;;;;;3.88;67.76;100376.22;682816;29;984;-82
2022/01/08 01:01:53;;;;;;;10.50;7.83;;;;;;;3.84;67.69;100375.19;680193;29;999;-81
2022/01/08 01:02:14;;;;;;;10.10;7.43;;;;;;;3.78;67.54;100364.56;682644;28;1279;-81
2022/01/08 01:02:35;;;;;;;14.02;7.90;;;;;;;3.81;67.58;100378.50;685459;28;1162;-81
2022/01/08 01:02:55;;;;;;;13.88;7.30;;;;;;;3.78;67.27;100368.03;684887;28;1215;-82
2022/01/08 01:03:16;;;;;;;13.87;7.37;;;;;;;3.81;67.74;100378.50;682707;28;1052;-82
2022/01/08 01:03:45;;;;;;;11.18;7.10;;;;;;;3.84;67.74;100380.34;682852;29;780;-81
2022/01/08 01:04:05;;;;;;;12.77;7.40;;;;;;;3.77;67.26;100379.16;681615;29;1971;-82
2022/01/08 01:04:26;;;;;;;14.40;7.55;;;;;;;3.77;67.42;100376.59;685183;28;1457;-81
2022/01/08 01:05:09;;;;;;;14.20;7.55;;;;;;;3.90;67.29;100383.22;682667;29;1336;-81
2022/01/08 01:05:30;;;;;;;10.32;7.30;;;;;;;3.73;67.43;100368.63;681720;29;2405;-81
2022/01/08 01:05:51;;;;;;;12.05;7.25;;;;;;;3.73;67.34;100381.53;682702;29;827;-81
2022/01/08 01:06:11;;;;;;;10.98;6.53;;;;;;;3.73;67.69;100384.97;680842;28;1123;-81
2022/01/08 01:06:32;;;;;;;11.77;6.80;;;;;;;3.71;67.60;100378.84;685081;28;1154;-81
2022/01/08 01:06:53;;;;;;;10.40;6.70;;;;;;;3.71;67.73;100373.69;684335;28;1454;-82
2022/01/08 01:07:14;;;;;;;12.55;7.20;;;;;;;3.70;67.63;100371.94;679881;29;1136;-81
2022/01/08 01:07:34;;;;;;;11.98;7.03;;;;;;;3.74;67.37;100394.47;674988;29;968;-82
2022/01/08 01:07:55;;;;;;;14.43;7.38;;;;;;;3.70;67.69;100383.13;682666;29;1997;-82
2022/01/08 01:08:16;;;;;;;13.80;7.43;;;;;;;3.65;67.44;100371.69;684993;28;1175;-82
2022/01/08 01:08:37;;;;;;;12.43;6.97;;;;;;;3.72;67.39;100388.38;685500;28;732;-82
2022/01/08 01:08:57;;;;;;;10.25;6.30;;;;;;;3.66;67.75;100385.47;682858;28;1787;-81
2022/01/08 01:09:18;;;;;;;10.00;6.63;;;;;;;3.68;67.63;100386.47;685150;28;1093;-81
2022/01/08 01:09:39;;;;;;;10.82;7.18;;;;;;;3.68;67.76;100382.16;683979;28;1639;-82
2022/01/08 01:09:59;;;;;;;9.90;7.40;;;;;;;3.65;67.43;100378.53;680016;29;1017;-81
2022/01/08 01:10:20;;;;;;;8.70;7.07;;;;;;;3.65;67.61;100381.13;679978;29;1002;-82
2022/01/08 01:10:41;;;;;;;9.17;7.00;;;;;;;3.68;67.99;100389.03;674886;29;1210;-82
2022/01/08 01:11:02;;;;;;;10.10;7.30;;;;;;;3.68;67.88;100391.63;679844;29;1135;-82
2022/01/08 01:11:22;;;;;;;11.63;7.38;;;;;;;3.70;67.86;100392.56;677370;29;1109;-82
2022/01/08 01:11:43;;;;;;;11.20;7.53;;;;;;;3.70;67.46;100387.41;677513;29;854;-81
2022/01/08 01:12:07;;;;;;;10.00;7.27;;;;;;;3.61;67.83;100380.09;679956;29;1268;-81
2022/01/08 01:12:28;;;;;;;9.13;7.03;;;;;;;3.59;67.57;100388.56;680197;29;829;-82
2022/01/08 01:12:48;;;;;;;10.23;7.07;;;;;;;3.58;67.50;100391.94;680222;29;823;-81
2022/01/08 01:13:09;;;;;;;10.80;7.10;;;;;;;3.47;68.23;100375.91;679638;29;1160;-82
2022/01/08 01:13:30;;;;;;;13.40;7.60;;;;;;;3.64;67.78;100387.09;677473;29;1427;-82
2022/01/08 01:13:50;;;;;;;13.43;7.90;;;;;;;3.64;67.70;100371.63;678119;29;889;-82
2022/01/08 01:14:11;;;;;;;13.07;8.03;;;;;;;3.78;67.24;100383.50;682226;29;1440;-82
2022/01/08 01:14:32;;;;;;;11.55;7.75;;;;;;;3.83;67.17;100389.81;680200;29;820;-82
2022/01/08 01:14:52;;;;;;;11.27;7.40;;;;;;;3.76;67.22;100379.97;677461;29;1350;-81
2022/01/08 01:15:15;;;;;;;13.25;7.57;;;;;;;3.86;67.10;100389.03;677330;29;1108;-82
2022/01/08 01:15:35;;;;;;;12.88;7.50;;;;;;;3.80;67.23;100387.03;674981;29;855;-81
2022/01/08 01:15:57;;;;;;;13.20;7.93;;;;;;;3.66;67.22;100377.72;679669;29;1114;-82
2022/01/08 01:16:19;;;;;;;12.55;7.95;;;;;;;3.63;67.15;100385.34;680039;29;1065;-82
2022/01/08 01:16:39;;;;;;;12.18;7.85;;;;;;;3.61;67.20;100384.38;680916;29;764;-81
2022/01/08 01:17:00;;;;;;;12.02;7.78;;;;;;;3.54;67.34;100378.00;682704;29;1068;-82
2022/01/08 01:17:21;;;;;;;11.73;7.80;;;;;;;3.54;67.38;100384.06;679977;29;1092;-82
2022/01/08 01:17:46;;;;;;;11.43;8.00;;;;;;;3.63;67.68;100385.34;682795;29;1428;-81
2022/01/08 01:18:08;;;;;;;10.48;7.70;;;;;;;3.56;67.33;100385.03;682472;29;1113;-81
2022/01/08 01:18:29;;;;;;;12.13;8.10;;;;;;;3.50;67.28;100374.38;682674;29;1241;-82
2022/01/08 01:18:49;;;;;;;12.57;8.20;;;;;;;3.61;67.29;100385.25;682803;29;851;-81
2022/01/08 01:19:10;;;;;;;15.80;8.80;;;;;;;3.51;67.28;100372.69;682205;29;1232;-82
2022/01/08 01:19:31;;;;;;;16.33;8.93;;;;;;;3.63;67.57;100380.16;681247;29;904;-82
2022/01/08 01:19:52;;;;;;;17.73;9.23;;;;;;;3.61;67.30;100377.50;682506;29;1032;-82
2022/01/08 01:20:16;;;;;;;16.90;9.10;;;;;;;3.54;67.47;100378.91;679020;29;1461;-82
2022/01/08 01:20:37;;;;;;;15.20;9.13;;;;;;;3.59;67.53;100381.72;677541;29;881;-81
2022/01/08 01:20:58;;;;;;;15.57;9.38;;;;;;;3.63;67.46;100385.34;674869;29;789;-82
2022/01/08 01:21:19;;;;;;;15.15;9.27;;;;;;;3.49;67.71;100372.63;676656;29;1156;-82
2022/01/08 01:21:39;;;;;;;16.10;9.00;;;;;;;3.66;67.56;100391.53;680200;29;779;-81
2022/01/08 01:22:00;;;;;;;16.47;9.17;;;;;;;3.73;67.04;100384.09;680013;29;1167;-82
2022/01/08 01:22:25;;;;;;;15.70;9.27;;;;;;;3.60;67.07;100382.63;680111;29;1091;-82
2022/01/08 01:22:55;;;;;;;15.52;8.80;;;;;;;3.62;67.34;100389.59;684892;28;1297;-82
2022/01/08 01:23:21;;;;;;;12.63;8.57;;;;;;;3.59;67.34;100388.56;685151;28;1298;-81
2022/01/08 01:23:43;;;;;;;13.32;9.65;;;;;;;3.52;67.48;100377.94;682514;28;1692;-82
2022/01/08 01:24:10;;;;;;;14.95;10.00;;;;;;;3.54;67.28;100388.31;683553;28;1423;-82
2022/01/08 01:24:37;;;;;;;17.77;10.48;;;;;;;3.51;67.67;100383.94;682699;28;838;-81
2022/01/08 01:25:04;;;;;;;20.27;10.95;;;;;;;3.47;67.43;100379.41;685485;28;791;-81
2022/01/08 01:25:32;;;;;;;17.50;10.10;;;;;;;3.47;67.67;100376.81;679889;29;1389;-81
2022/01/08 01:25:57;;;;;;;15.68;9.35;;;;;;;3.48;67.39;100381.16;683025;28;930;-82
2022/01/08 01:26:23;;;;;;;16.60;9.65;;;;;;;3.46;67.85;100377.63;682353;29;1057;-82
2022/01/08 01:27:17;;;;;;;17.23;9.20;;;;;;;3.40;67.71;100372.16;680081;29;925;-82
2022/01/08 01:28:56;;;;;;;14.68;8.80;;;;;;;3.47;68.17;100393.97;684634;28;2012;-82
2022/01/08 01:30:16;;;;;;;14.85;8.85;;;;;;;3.41;67.81;100384.25;678740;29;1167;-82
2022/01/08 01:42:41;;;;;;;12.57;7.95;;;;;;;3.38;66.83;100379.81;679235;29;1270;-82
2022/01/08 01:43:21;;;;;;;14.70;8.23;;;;;;;3.38;66.82;100378.94;685344;28;1593;-82
2022/01/08 01:47:04;;;;;;;13.73;8.30;;;;;;;3.39;66.32;100370.38;685384;28;862;-81
2022/01/08 01:47:33;;;;;;;12.55;8.40;;;;;;;3.22;66.55;100375.56;682240;29;1161;-82
2022/01/08 01:47:54;;;;;;;13.65;8.50;;;;;;;3.17;66.73;100379.59;677282;29;1923;-81
2022/01/08 01:48:26;;;;;;;14.57;8.40;;;;;;;3.06;66.86;100371.31;676775;29;1231;-81
2022/01/08 01:48:47;;;;;;;12.40;7.72;;;;;;;3.05;66.95;100369.53;680107;29;860;-82
2022/01/08 01:49:08;;;;;;;10.00;7.17;;;;;;;3.03;67.16;100375.41;681802;29;1642;-82
2022/01/08 01:49:33;;;;;;;10.90;7.75;;;;;;;3.01;67.54;100372.78;679655;29;832;-82
2022/01/08 01:49:54;;;;;;;11.57;8.43;;;;;;;2.99;67.37;100375.25;682410;29;847;-81
2022/01/08 01:50:15;;;;;;;10.27;8.20;;;;;;;3.00;67.27;100371.88;684404;28;1072;-81
2022/01/08 01:50:35;;;;;;;10.07;8.00;;;;;;;3.17;67.38;100374.44;682643;29;929;-81
2022/01/08 01:50:56;;;;;;;11.73;8.10;;;;;;;3.23;67.18;100382.50;677529;29;1164;-81
2022/01/08 01:51:21;;;;;;;14.13;8.60;;;;;;;3.23;67.04;100369.59;687473;28;1129;-82
2022/01/08 01:51:42;;;;;;;14.55;8.55;;;;;;;3.33;66.75;100382.97;680024;29;901;-82
2022/01/08 01:52:05;;;;;;;12.38;8.30;;;;;;;3.34;66.32;100379.56;679805;29;1667;-81
2022/01/08 01:52:27;;;;;;;11.90;7.68;;;;;;;3.29;66.57;100366.44;677411;29;1150;-82
2022/01/08 01:52:47;;;;;;;13.27;7.70;;;;;;;3.37;66.61;100382.34;680029;29;1146;-82
2022/01/08 01:53:08;;;;;;;13.48;8.00;;;;;;;3.38;66.59;100381.53;678348;29;1310;-81
2022/01/08 01:53:29;;;;;;;13.47;8.27;;;;;;;3.31;66.45;100366.53;675643;29;1030;-81
2022/01/08 01:53:50;;;;;;;15.25;8.70;;;;;;;3.34;65.89;100377.00;676956;29;1437;-81
2022/01/08 01:54:12;;;;;;;14.93;8.38;;;;;;;3.32;66.20;100374.38;677201;29;1398;-82
2022/01/08 01:54:36;;;;;;;13.35;8.30;;;;;;;3.31;65.99;100371.69;682661;29;847;-82
2022/01/08 01:54:56;;;;;;;11.50;7.80;;;;;;;3.31;65.78;100371.69;677345;29;1110;-81
2022/01/08 01:55:17;;;;;;;14.37;7.73;;;;;;;3.31;65.75;100376.84;679289;29;1416;-82
2022/01/08 01:55:45;;;;;;;14.23;7.88;;;;;;;3.30;65.76;100369.94;677511;29;854;-82
2022/01/08 01:56:07;;;;;;;13.88;8.18;;;;;;;3.30;65.57;100377.66;682377;28;1427;-81
2022/01/08 01:56:28;;;;;;;12.50;8.18;;;;;;;3.25;65.61;100377.44;682645;29;819;-81
2022/01/08 01:56:49;;;;;;;11.60;8.10;;;;;;;3.24;65.93;100370.50;680045;29;1439;-82
2022/01/08 01:57:13;;;;;;;11.70;8.07;;;;;;;3.23;65.52;100379.03;681126;29;1104;-81
2022/01/08 01:57:34;;;;;;;12.07;8.25;;;;;;;3.20;65.52;100369.47;674098;29;1369;-81
2022/01/08 01:57:54;;;;;;;12.60;8.27;;;;;;;3.27;65.72;100391.28;677516;29;872;-81
2022/01/08 01:58:33;;;;;;;12.37;8.00;;;;;;;3.17;65.75;100374.44;682258;29;1140;-82
2022/01/08 01:58:54;;;;;;;13.93;7.20;;;;;;;3.16;66.04;100377.81;678214;29;1521;-82
2022/01/08 01:59:14;;;;;;;16.13;8.13;;;;;;;3.17;65.63;100387.34;681835;29;1176;-82
2022/01/08 01:59:36;;;;;;;14.80;8.60;;;;;;;3.20;65.98;100384.94;684763;28;1060;-82
2022/01/08 01:59:58;;;;;;;13.57;8.60;;;;;;;3.17;66.01;100382.19;679941;29;1281;-82
2022/01/08 02:00:19;;;;;;;11.38;8.02;;;;;;;3.15;65.70;100376.06;679468;29;1126;-81
2022/01/08 02:00:42;;;;;;;10.85;8.10;;;;;;;3.16;65.76;100372.66;680148;29;764;-82
2022/01/08 02:01:02;;;;;;;10.48;8.02;;;;;;;3.15;65.70;100378.66;680304;29;1127;-81
2022/01/08 02:01:23;;;;;;;11.30;7.80;;;;;;;3.13;65.59;100380.25;682543;29;1118;-81
2022/01/08 02:01:44;;;;;;;12.45;8.30;;;;;;;3.10;65.72;100378.41;677157;29;1183;-82
2022/01/08 02:02:05;;;;;;;12.60;8.80;;;;;;;3.08;65.62;100380.03;680434;29;1187;-81
2022/01/08 02:02:26;;;;;;;13.27;8.73;;;;;;;3.10;65.32;100383.56;679757;29;1575;-82
2022/01/08 02:02:46;;;;;;;13.88;8.35;;;;;;;3.10;65.70;100391.28;679791;29;686;-82
2022/01/08 02:03:07;;;;;;;14.15;8.30;;;;;;;3.06;65.63;100384.19;678011;29;1049;-81